createdAt,value
2019-04-28T00:01:54.771Z,7.78
2019-04-28T00:04:24.386Z,7.87
2019-04-28T00:06:54.026Z,7.94
2019-04-28T00:09:23.789Z,7.87
2019-04-28T00:11:53.499Z,7.79
2019-04-28T00:14:23.186Z,7.57
2019-04-28T00:16:53.195Z,7.79
2019-04-28T00:19:24.514Z,7.77
2019-04-28T00:21:55.802Z,7.54
2019-04-28T00:24:27.065Z,7.42
2019-04-28T00:26:58.323Z,7.31
2019-04-28T00:29:38.677Z,7.36
2019-04-28T00:32:01.088Z,7.30
2019-04-28T00:34:31.201Z,7.31
2019-04-28T00:37:02.559Z,7.23
2019-04-28T00:39:32.200Z,7.08
2019-04-28T00:42:03.338Z,7.09
2019-04-28T00:44:33.561Z,7.30
2019-04-28T00:47:03.175Z,7.61
2019-04-28T00:49:47.790Z,7.78
2019-04-28T00:52:19.419Z,8.17
2019-04-28T00:54:50.050Z,8.19
2019-04-28T00:57:21.217Z,8.14
2019-04-28T00:59:57.466Z,8.08
2019-04-28T01:02:24.108Z,8.04
2019-04-28T01:04:53.876Z,8.02
2019-04-28T01:07:23.586Z,8.02
2019-04-28T01:09:53.206Z,8.05
2019-04-28T01:12:22.843Z,8.16
2019-04-28T01:14:54.967Z,8.19
2019-04-28T01:17:34.403Z,8.25
2019-04-28T01:20:13.336Z,8.22
2019-04-28T01:22:42.973Z,8.14
2019-04-28T01:25:12.787Z,8.09
2019-04-28T01:27:42.270Z,8.06
2019-04-28T01:30:13.836Z,8.14
2019-04-28T01:32:49.728Z,8.15
2019-04-28T01:35:20.921Z,8.11
2019-04-28T01:37:50.834Z,8.04
2019-04-28T01:40:20.672Z,8.05
2019-04-28T01:42:50.282Z,8.15
2019-04-28T01:45:20.553Z,8.12
2019-04-28T01:47:50.512Z,8.14
2019-04-28T01:50:20.572Z,8.14
2019-04-28T01:52:51.588Z,8.24
2019-04-28T01:55:21.434Z,8.16
2019-04-28T01:57:51.044Z,8.27
2019-04-28T02:00:25.497Z,8.26
2019-04-28T02:02:53.113Z,8.11
2019-04-28T02:05:22.820Z,8.11
2019-04-28T02:07:52.436Z,8.16
2019-04-28T02:10:22.218Z,8.21
2019-04-28T02:12:51.835Z,8.07
2019-04-28T02:15:21.515Z,7.96
2019-04-28T02:17:51.639Z,8.00
2019-04-28T02:20:23.229Z,8.01
2019-04-28T02:23:03.638Z,7.79
2019-04-28T02:25:33.256Z,7.81
2019-04-28T02:28:02.896Z,7.74
2019-04-28T02:30:45.442Z,7.68
2019-04-28T02:33:03.941Z,7.65
2019-04-28T02:35:34.282Z,7.27
2019-04-28T02:38:04.258Z,7.31
2019-04-28T02:40:33.872Z,7.27
2019-04-28T02:43:03.516Z,7.33
2019-04-28T02:45:36.246Z,7.17
2019-04-28T02:48:07.668Z,7.04
2019-04-28T02:50:41.100Z,6.90
2019-04-28T02:53:17.889Z,6.99
2019-04-28T02:55:47.580Z,7.00
2019-04-28T02:58:17.290Z,6.74
2019-04-28T03:01:02.839Z,6.73
2019-04-28T03:03:20.922Z,6.87
2019-04-28T03:05:51.201Z,6.92
2019-04-28T03:08:21.711Z,6.93
2019-04-28T03:10:51.500Z,6.75
2019-04-28T03:13:21.182Z,6.74
2019-04-28T03:15:51.768Z,6.93
2019-04-28T03:18:21.659Z,7.02
2019-04-28T03:20:51.851Z,7.02
2019-04-28T03:23:22.033Z,7.10
2019-04-28T03:26:01.369Z,7.14
2019-04-28T03:28:33.690Z,6.91
2019-04-28T03:31:35.003Z,7.02
2019-04-28T03:33:43.529Z,7.11
2019-04-28T03:36:13.830Z,7.18
2019-04-28T03:38:40.639Z,7.07
2019-04-28T03:41:11.358Z,6.97
2019-04-28T03:43:41.126Z,6.86
2019-04-28T03:46:15.077Z,6.90
2019-04-28T03:48:44.715Z,7.00
2019-04-28T03:51:14.395Z,7.05
2019-04-28T03:53:44.050Z,7.04
2019-04-28T03:56:13.657Z,7.08
2019-04-28T03:58:43.312Z,7.16
2019-04-28T04:01:12.980Z,7.20
2019-04-28T04:03:42.647Z,7.21
2019-04-28T04:06:12.270Z,7.21
2019-04-28T04:08:41.899Z,7.24
2019-04-28T04:11:17.045Z,7.28
2019-04-28T04:14:03.889Z,7.34
2019-04-28T04:16:45.028Z,7.40
2019-04-28T04:19:16.229Z,7.39
2019-04-28T04:21:45.842Z,7.32
2019-04-28T04:24:15.506Z,7.36
2019-04-28T04:26:45.122Z,7.15
2019-04-28T04:29:14.735Z,7.02
2019-04-28T04:31:44.373Z,7.08
2019-04-28T04:34:13.987Z,6.99
2019-04-28T04:36:43.622Z,6.99
2019-04-28T04:39:13.264Z,7.02
2019-04-28T04:41:43.753Z,7.06
2019-04-28T04:44:13.567Z,7.14
2019-04-28T04:46:43.211Z,7.21
2019-04-28T04:49:12.848Z,7.30
2019-04-28T04:51:44.005Z,7.33
2019-04-28T04:54:13.804Z,7.32
2019-04-28T04:56:43.446Z,7.25
2019-04-28T04:59:13.066Z,7.27
2019-04-28T05:01:47.137Z,7.24
2019-04-28T05:04:19.705Z,7.25
2019-04-28T05:06:49.723Z,7.56
2019-04-28T05:09:19.672Z,7.49
2019-04-28T05:11:50.118Z,7.38
2019-04-28T05:14:20.057Z,7.28
2019-04-28T05:16:49.861Z,7.24
2019-04-28T05:19:20.006Z,7.21
2019-04-28T05:21:49.982Z,7.18
2019-04-28T05:24:25.651Z,7.24
2019-04-28T05:26:55.264Z,7.27
2019-04-28T05:29:26.699Z,7.25
2019-04-28T05:31:59.846Z,7.32
2019-04-28T05:34:29.516Z,7.32
2019-04-28T05:37:00.688Z,7.31
2019-04-28T05:39:30.371Z,7.32
2019-04-28T05:42:00.792Z,7.33
2019-04-28T05:44:32.130Z,7.40
2019-04-28T05:47:02.026Z,7.40
2019-04-28T05:49:31.408Z,7.43
2019-04-28T05:52:20.035Z,7.45
2019-04-28T05:55:10.190Z,7.47
2019-04-28T05:57:53.046Z,7.59
2019-04-28T06:00:23.892Z,7.46
2019-04-28T06:02:56.815Z,7.32
2019-04-28T06:05:26.668Z,7.38
2019-04-28T06:07:59.610Z,7.34
2019-04-28T06:10:29.877Z,7.28
2019-04-28T06:12:59.822Z,7.30
2019-04-28T06:15:29.585Z,7.39
2019-04-28T06:18:00.184Z,7.25
2019-04-28T06:20:30.371Z,7.32
2019-04-28T06:23:00.111Z,7.40
2019-04-28T06:25:29.736Z,7.42
2019-04-28T06:27:59.803Z,7.54
2019-04-28T06:30:29.471Z,7.60
2019-04-28T06:33:07.988Z,7.61
2019-04-28T06:35:35.067Z,7.57
2019-04-28T06:38:04.747Z,7.37
2019-04-28T06:40:34.381Z,7.48
2019-04-28T06:43:04.064Z,7.47
2019-04-28T06:45:33.748Z,7.54
2019-04-28T06:48:03.361Z,7.62
2019-04-28T06:50:33.020Z,7.64
2019-04-28T06:53:03.042Z,7.69
2019-04-28T06:55:32.825Z,7.73
2019-04-28T06:58:02.439Z,7.85
2019-04-28T07:00:32.093Z,7.86
2019-04-28T07:03:01.724Z,7.95
2019-04-28T07:05:31.667Z,8.06
2019-04-28T07:08:01.291Z,8.08
2019-04-28T07:10:30.906Z,8.35
2019-04-28T07:13:00.607Z,8.36
2019-04-28T07:15:30.231Z,8.36
2019-04-28T07:17:59.867Z,8.39
2019-04-28T07:20:32.734Z,8.53
2019-04-28T07:23:02.526Z,8.37
2019-04-28T07:25:32.476Z,8.34
2019-04-28T07:28:02.115Z,8.38
2019-04-28T07:30:31.741Z,8.50
2019-04-28T07:33:01.422Z,8.44
2019-04-28T07:35:31.107Z,8.33
2019-04-28T07:38:00.723Z,8.43
2019-04-28T07:40:30.363Z,8.50
2019-04-28T07:42:59.985Z,8.57
2019-04-28T07:45:29.703Z,8.58
2019-04-28T07:47:59.587Z,8.62
2019-04-28T07:50:29.227Z,8.74
2019-04-28T07:53:03.256Z,8.67
2019-04-28T07:55:33.162Z,8.69
2019-04-28T07:58:02.748Z,8.69
2019-04-28T08:00:32.991Z,8.85
2019-04-28T08:03:02.608Z,8.93
2019-04-28T08:05:32.231Z,8.99
2019-04-28T08:08:01.941Z,8.91
2019-04-28T08:10:31.631Z,9.01
2019-04-28T08:13:01.271Z,9.09
2019-04-28T08:15:30.889Z,8.98
2019-04-28T08:18:00.523Z,9.06
2019-04-28T08:20:30.204Z,9.12
2019-04-28T08:22:59.845Z,9.15
2019-04-28T08:25:29.461Z,9.17
2019-04-28T08:27:59.369Z,9.14
2019-04-28T08:30:29.126Z,8.98
2019-04-28T08:33:00.411Z,8.99
2019-04-28T08:35:30.203Z,9.03
2019-04-28T08:37:59.929Z,9.28
2019-04-28T08:40:29.538Z,9.32
2019-04-28T08:42:59.256Z,9.35
2019-04-28T08:45:28.874Z,9.41
2019-04-28T08:47:58.493Z,9.33
2019-04-28T08:50:28.128Z,9.05
2019-04-28T08:52:57.740Z,9.26
2019-04-28T08:55:27.392Z,9.41
2019-04-28T08:57:57.087Z,9.45
2019-04-28T09:00:26.746Z,9.58
2019-04-28T09:02:56.370Z,9.70
2019-04-28T09:05:26.016Z,9.65
2019-04-28T09:07:55.637Z,9.68
2019-04-28T09:10:25.271Z,9.63
2019-04-28T09:12:54.891Z,9.78
2019-04-28T09:15:24.572Z,9.88
2019-04-28T09:17:54.197Z,9.93
2019-04-28T09:20:23.819Z,9.99
2019-04-28T09:22:53.472Z,10.18
2019-04-28T09:25:23.095Z,10.11
2019-04-28T09:27:52.755Z,10.17
2019-04-28T09:30:22.529Z,10.25
2019-04-28T09:32:52.241Z,10.44
2019-04-28T09:35:21.881Z,10.60
2019-04-28T09:37:51.529Z,10.76
2019-04-28T09:40:21.159Z,10.94
2019-04-28T09:42:58.248Z,11.04
2019-04-28T09:45:29.517Z,11.20
2019-04-28T09:47:59.174Z,11.30
2019-04-28T09:50:28.803Z,11.20
2019-04-28T09:52:58.448Z,11.14
2019-04-28T09:55:28.072Z,11.03
2019-04-28T09:57:57.743Z,10.82
2019-04-28T10:00:27.437Z,10.67
2019-04-28T10:02:57.056Z,10.63
2019-04-28T10:05:26.793Z,10.71
2019-04-28T10:07:56.417Z,10.24
2019-04-28T10:10:26.069Z,9.48
2019-04-28T10:12:55.681Z,9.33
2019-04-28T10:15:25.496Z,9.05
2019-04-28T10:17:55.122Z,8.87
2019-04-28T10:20:24.923Z,8.73
2019-04-28T10:22:54.538Z,8.54
2019-04-28T10:25:24.158Z,8.59
2019-04-28T10:27:53.805Z,8.60
2019-04-28T10:30:23.559Z,8.64
2019-04-28T10:32:53.206Z,8.70
2019-04-28T10:35:22.820Z,8.85
2019-04-28T10:37:52.468Z,8.62
2019-04-28T10:40:48.687Z,8.63
2019-04-28T10:43:18.486Z,8.62
2019-04-28T10:45:49.959Z,8.60
2019-04-28T10:48:19.739Z,8.70
2019-04-28T10:50:49.367Z,8.78
2019-04-28T10:53:19.016Z,8.91
2019-04-28T10:55:48.643Z,8.93
2019-04-28T10:58:18.333Z,8.92
2019-04-28T11:00:48.033Z,8.97
2019-04-28T11:03:17.705Z,9.00
2019-04-28T11:05:47.418Z,9.08
2019-04-28T11:08:35.420Z,9.17
2019-04-28T11:11:06.708Z,9.33
2019-04-28T11:13:36.319Z,9.45
2019-04-28T11:16:06.378Z,9.55
2019-04-28T11:18:36.059Z,9.56
2019-04-28T11:21:05.785Z,9.55
2019-04-28T11:23:35.549Z,9.44
2019-04-28T11:26:05.403Z,9.49
2019-04-28T11:28:37.798Z,9.39
2019-04-28T11:31:07.236Z,9.40
2019-04-28T11:33:38.586Z,9.36
2019-04-28T11:36:08.418Z,9.24
2019-04-28T11:38:38.131Z,9.43
2019-04-28T11:41:07.886Z,9.26
2019-04-28T11:43:37.605Z,9.14
2019-04-28T11:46:08.861Z,8.91
2019-04-28T11:48:38.579Z,8.90
2019-04-28T11:51:08.196Z,8.82
2019-04-28T11:53:37.860Z,8.83
2019-04-28T11:56:07.542Z,8.81
2019-04-28T11:58:37.227Z,8.75
2019-04-28T12:01:08.585Z,8.72
2019-04-28T12:03:38.348Z,8.78
2019-04-28T12:06:07.983Z,8.66
2019-04-28T12:08:37.601Z,8.70
2019-04-28T12:11:08.946Z,8.79
2019-04-28T12:13:43.000Z,8.95
2019-04-28T12:16:14.808Z,8.98
2019-04-28T12:18:46.632Z,9.13
2019-04-28T12:21:16.413Z,9.24
2019-04-28T12:23:46.096Z,9.32
2019-04-28T12:26:15.736Z,9.48
2019-04-28T12:28:45.359Z,9.55
2019-04-28T12:31:14.994Z,9.67
2019-04-28T12:33:44.616Z,9.80
2019-04-28T12:36:14.339Z,9.90
2019-04-28T12:38:43.965Z,9.99
2019-04-28T12:41:13.588Z,10.23
2019-04-28T12:43:43.237Z,10.54
2019-04-28T12:46:12.865Z,10.61
2019-04-28T12:48:42.515Z,10.64
2019-04-28T12:51:12.321Z,10.71
2019-04-28T12:53:42.044Z,10.79
2019-04-28T12:56:12.249Z,10.68
2019-04-28T12:58:41.965Z,10.71
2019-04-28T13:01:16.280Z,10.73
2019-04-28T13:03:46.773Z,10.87
2019-04-28T13:06:23.516Z,10.98
2019-04-28T13:08:53.234Z,10.93
2019-04-28T13:11:22.863Z,11.04
2019-04-28T13:13:52.513Z,11.15
2019-04-28T13:16:22.138Z,11.21
2019-04-28T13:18:51.797Z,11.19
2019-04-28T13:21:21.429Z,11.33
2019-04-28T13:23:51.077Z,11.53
2019-04-28T13:26:20.786Z,11.73
2019-04-28T13:28:50.412Z,12.18
2019-04-28T13:31:20.077Z,12.46
2019-04-28T13:33:56.453Z,12.83
2019-04-28T13:36:21.070Z,13.26
2019-04-28T13:38:50.733Z,13.68
2019-04-28T13:41:20.425Z,13.75
2019-04-28T13:43:50.060Z,13.80
2019-04-28T13:46:19.710Z,14.32
2019-04-28T13:48:49.348Z,14.51
2019-04-28T13:51:19.093Z,14.69
2019-04-28T13:53:48.692Z,15.01
2019-04-28T13:56:18.353Z,15.28
2019-04-28T13:58:49.651Z,15.61
2019-04-28T14:01:29.554Z,15.95
2019-04-28T14:04:12.938Z,16.17
2019-04-28T14:06:44.254Z,16.26
2019-04-28T14:09:15.636Z,16.49
2019-04-28T14:11:45.499Z,15.93
2019-04-28T14:14:15.299Z,15.32
2019-04-28T14:16:46.155Z,14.61
2019-04-28T14:19:15.820Z,14.16
2019-04-28T14:21:45.718Z,13.99
2019-04-28T14:24:15.426Z,13.96
2019-04-28T14:26:45.219Z,14.16
2019-04-28T14:29:14.900Z,14.78
2019-04-28T14:31:44.586Z,15.33
2019-04-28T14:34:14.306Z,15.54
2019-04-28T14:36:44.019Z,16.10
2019-04-28T14:39:14.027Z,16.31
2019-04-28T14:41:43.758Z,16.01
2019-04-28T14:44:13.424Z,15.57
2019-04-28T14:46:43.041Z,15.08
2019-04-28T14:49:12.827Z,14.59
2019-04-28T14:51:42.471Z,14.28
2019-04-28T14:54:12.096Z,14.06
2019-04-28T14:56:41.815Z,13.84
2019-04-28T14:59:11.447Z,13.95
2019-04-28T15:01:55.926Z,15.24
2019-04-28T15:04:30.124Z,15.73
2019-04-28T15:07:03.914Z,15.52
2019-04-28T15:09:51.580Z,15.88
2019-04-28T15:12:21.348Z,16.70
2019-04-28T15:14:51.093Z,18.03
2019-04-28T15:17:20.815Z,18.02
2019-04-28T15:19:50.440Z,17.25
2019-04-28T15:22:20.093Z,16.54
2019-04-28T15:24:49.712Z,16.51
2019-04-28T15:27:19.370Z,16.88
2019-04-28T15:29:50.423Z,16.46
2019-04-28T15:32:20.135Z,16.38
2019-04-28T15:34:49.759Z,16.12
2019-04-28T15:37:19.629Z,16.31
2019-04-28T15:39:49.255Z,16.26
2019-04-28T15:42:18.878Z,16.01
2019-04-28T15:44:48.526Z,15.34
2019-04-28T15:47:18.159Z,14.83
2019-04-28T15:49:47.814Z,14.35
2019-04-28T15:52:17.438Z,14.03
2019-04-28T15:54:47.245Z,13.81
2019-04-28T15:57:16.875Z,13.71
2019-04-28T15:59:46.679Z,13.69
2019-04-28T16:02:16.310Z,13.41
2019-04-28T16:04:46.000Z,13.15
2019-04-28T16:07:24.558Z,13.00
2019-04-28T16:09:46.999Z,12.97
2019-04-28T16:12:16.655Z,12.95
2019-04-28T16:14:46.281Z,12.87
2019-04-28T16:17:15.938Z,12.71
2019-04-28T16:19:45.569Z,12.58
2019-04-28T16:22:15.217Z,12.61
2019-04-28T16:24:44.850Z,12.60
2019-04-28T16:27:14.519Z,12.51
2019-04-28T16:29:44.149Z,12.49
2019-04-28T16:32:13.843Z,12.41
2019-04-28T16:34:43.501Z,12.37
2019-04-28T16:37:13.120Z,12.35
2019-04-28T16:39:42.833Z,12.38
2019-04-28T16:42:12.464Z,12.35
2019-04-28T16:44:42.180Z,12.50
2019-04-28T16:47:11.809Z,12.25
2019-04-28T16:49:41.464Z,12.17
2019-04-28T16:52:11.086Z,12.08
2019-04-28T16:54:40.810Z,12.07
2019-04-28T16:57:12.077Z,12.12
2019-04-28T16:59:52.423Z,12.01
2019-04-28T17:02:26.266Z,11.73
2019-04-28T17:04:55.891Z,11.72
2019-04-28T17:07:25.618Z,11.32
2019-04-28T17:09:55.317Z,11.30
2019-04-28T17:12:25.037Z,11.20
2019-04-28T17:14:54.659Z,11.28
2019-04-28T17:17:24.320Z,10.92
2019-04-28T17:19:54.027Z,10.96
2019-04-28T17:22:23.738Z,10.95
2019-04-28T17:24:53.382Z,10.79
2019-04-28T17:27:23.040Z,10.75
2019-04-28T17:29:52.734Z,10.63
2019-04-28T17:32:22.389Z,10.67
2019-04-28T17:34:52.020Z,10.63
2019-04-28T17:37:21.847Z,10.54
2019-04-28T17:39:51.464Z,10.57
2019-04-28T17:42:21.081Z,10.73
2019-04-28T17:44:50.796Z,10.64
2019-04-28T17:47:20.866Z,10.74
2019-04-28T17:49:50.516Z,10.78
2019-04-28T17:52:20.273Z,10.81
2019-04-28T17:54:50.122Z,10.90
2019-04-28T17:57:19.907Z,11.01
2019-04-28T17:59:51.220Z,10.99
2019-04-28T18:02:38.597Z,11.00
2019-04-28T18:05:18.884Z,10.96
2019-04-28T18:07:49.779Z,11.03
2019-04-28T18:10:20.464Z,11.03
2019-04-28T18:13:00.369Z,10.94
2019-04-28T18:15:39.332Z,10.86
2019-04-28T18:18:28.535Z,10.82
2019-04-28T18:20:58.185Z,10.87
2019-04-28T18:23:27.811Z,10.88
2019-04-28T18:25:57.467Z,10.82
2019-04-28T18:28:27.093Z,10.71
2019-04-28T18:31:14.494Z,10.76
2019-04-28T18:33:45.780Z,10.77
2019-04-28T18:36:19.918Z,10.82
2019-04-28T18:38:51.208Z,10.88
2019-04-28T18:41:40.532Z,10.79
2019-04-28T18:44:11.900Z,10.77
2019-04-28T18:46:41.593Z,10.76
2019-04-28T18:49:11.253Z,10.67
2019-04-28T18:51:41.351Z,10.58
2019-04-28T18:54:11.001Z,10.51
2019-04-28T18:56:40.620Z,10.53
2019-04-28T18:59:10.347Z,10.53
2019-04-28T19:01:47.438Z,10.50
2019-04-28T19:04:17.204Z,10.69
2019-04-28T19:06:46.840Z,10.46
2019-04-28T19:09:22.639Z,10.38
2019-04-28T19:11:54.007Z,10.43
2019-04-28T19:14:41.555Z,10.42
2019-04-28T19:17:15.502Z,10.40
2019-04-28T19:19:45.133Z,10.34
2019-04-28T19:22:14.781Z,10.29
2019-04-28T19:24:44.410Z,10.26
2019-04-28T19:27:14.125Z,10.24
2019-04-28T19:29:43.744Z,10.34
2019-04-28T19:32:13.452Z,10.34
2019-04-28T19:34:43.070Z,10.35
2019-04-28T19:37:12.721Z,10.37
2019-04-28T19:39:42.827Z,10.30
2019-04-28T19:42:12.488Z,10.27
2019-04-28T19:44:42.103Z,10.18
2019-04-28T19:47:11.718Z,10.14
2019-04-28T19:49:41.431Z,10.08
2019-04-28T19:52:11.051Z,9.96
2019-04-28T19:54:42.428Z,10.09
2019-04-28T19:57:13.684Z,10.02
2019-04-28T19:59:53.940Z,10.02
2019-04-28T20:02:24.229Z,10.07
2019-04-28T20:04:53.860Z,9.86
2019-04-28T20:07:23.485Z,9.91
2019-04-28T20:09:53.136Z,9.85
2019-04-28T20:12:22.741Z,9.87
2019-04-28T20:14:52.370Z,9.78
2019-04-28T20:17:22.005Z,9.77
2019-04-28T20:19:51.618Z,9.80
2019-04-28T20:22:21.272Z,9.84
2019-04-28T20:24:50.956Z,9.74
2019-04-28T20:27:20.591Z,9.71
2019-04-28T20:29:50.208Z,9.70
2019-04-28T20:32:19.851Z,9.73
2019-04-28T20:34:49.600Z,9.74
2019-04-28T20:37:26.852Z,9.70
2019-04-28T20:39:58.128Z,9.64
2019-04-28T20:42:42.576Z,9.58
2019-04-28T20:45:13.961Z,9.67
2019-04-28T20:47:43.608Z,9.77
2019-04-28T20:50:14.221Z,9.75
2019-04-28T20:52:43.866Z,9.92
2019-04-28T20:55:13.744Z,9.95
2019-04-28T20:57:43.407Z,9.88
2019-04-28T21:00:13.235Z,9.86
2019-04-28T21:02:42.897Z,9.76
2019-04-28T21:05:12.670Z,9.78
2019-04-28T21:07:42.358Z,9.78
2019-04-28T21:10:12.074Z,9.72
2019-04-28T21:12:41.769Z,9.72
2019-04-28T21:15:11.890Z,9.63
2019-04-28T21:17:41.596Z,9.55
2019-04-28T21:20:11.477Z,9.55
2019-04-28T21:22:41.090Z,9.55
2019-04-28T21:25:11.139Z,9.51
2019-04-28T21:27:40.809Z,9.48
2019-04-28T21:30:11.703Z,9.54
2019-04-28T21:32:41.314Z,9.50
2019-04-28T21:35:11.146Z,9.75
2019-04-28T21:37:40.777Z,9.56
2019-04-28T21:40:12.276Z,9.61
2019-04-28T21:42:53.382Z,9.67
2019-04-28T21:45:30.476Z,9.60
2019-04-28T21:48:00.110Z,9.50
2019-04-28T21:50:29.733Z,9.55
2019-04-28T21:52:59.378Z,9.59
2019-04-28T21:55:28.994Z,9.53
2019-04-28T21:57:58.637Z,9.67
2019-04-28T22:00:43.293Z,9.75
2019-04-28T22:03:12.228Z,9.57
2019-04-28T22:05:41.915Z,9.49
2019-04-28T22:08:11.520Z,9.54
2019-04-28T22:10:41.153Z,9.44
2019-04-28T22:13:10.775Z,9.62
2019-04-28T22:15:40.478Z,9.52
2019-04-28T22:18:10.493Z,9.36
2019-04-28T22:20:40.135Z,9.27
2019-04-28T22:23:18.375Z,9.40
2019-04-28T22:25:42.762Z,9.43
2019-04-28T22:28:12.379Z,9.46
2019-04-28T22:30:42.040Z,9.34
2019-04-28T22:33:11.660Z,9.28
2019-04-28T22:35:41.278Z,9.25
2019-04-28T22:38:10.918Z,9.27
2019-04-28T22:40:40.533Z,9.48
2019-04-28T22:43:10.206Z,9.29
2019-04-28T22:45:39.895Z,9.24
2019-04-28T22:48:11.246Z,9.32
2019-04-28T22:50:45.485Z,9.31
2019-04-28T22:53:15.952Z,9.16
2019-04-28T22:55:47.246Z,9.16
2019-04-28T22:58:21.230Z,9.18
2019-04-28T23:00:52.823Z,9.13
2019-04-28T23:03:26.966Z,9.09
2019-04-28T23:05:56.992Z,9.14
2019-04-28T23:08:27.052Z,9.13
2019-04-28T23:10:56.807Z,9.17
2019-04-28T23:13:26.469Z,9.30
2019-04-28T23:15:56.136Z,9.18
2019-04-28T23:18:25.751Z,9.08
2019-04-28T23:20:57.102Z,9.14
2019-04-28T23:23:26.793Z,9.14
2019-04-28T23:25:56.509Z,9.20
2019-04-28T23:28:26.122Z,9.34
2019-04-28T23:30:55.757Z,9.24
2019-04-28T23:33:25.442Z,9.16
2019-04-28T23:35:55.155Z,9.06
2019-04-28T23:38:24.763Z,9.02
2019-04-28T23:40:56.062Z,8.98
2019-04-28T23:43:25.674Z,8.99
2019-04-28T23:45:55.298Z,9.15
2019-04-28T23:48:24.931Z,9.06
2019-04-28T23:51:04.880Z,8.97
2019-04-28T23:53:52.181Z,8.88
2019-04-28T23:56:21.796Z,8.84
2019-04-28T23:58:51.451Z,8.87
